sensor_id;sensor_type;location;lat;lon;timestamp;pressure;altitude;pressure_sealevel;temperature;humidity
11712;BME280;5912;51.034;6.984;2023-04-28T00:00:00;56324.28;;;-142.13;40.22
11712;BME280;5912;51.034;6.984;2023-04-28T00:02:25;56326.28;;;-142.13;40.17
11712;BME280;5912;51.034;6.984;2023-04-28T00:04:51;56344.31;;;-142.13;40.33
11712;BME280;5912;51.034;6.984;2023-04-28T00:07:16;56348.31;;;-142.13;40.62
11712;BME280;5912;51.034;6.984;2023-04-28T00:09:41;56332.28;;;-142.13;40.53
11712;BME280;5912;51.034;6.984;2023-04-28T00:12:06;56342.31;;;-142.13;40.86
11712;BME280;5912;51.034;6.984;2023-04-28T00:14:32;56328.28;;;-142.13;41.68
11712;BME280;5912;51.034;6.984;2023-04-28T00:16:57;56350.31;;;-142.13;42.49
11712;BME280;5912;51.034;6.984;2023-04-28T00:19:23;56320.28;;;-142.13;42.91
11712;BME280;5912;51.034;6.984;2023-04-28T00:21:48;56320.28;;;-142.13;43.20
11712;BME280;5912;51.034;6.984;2023-04-28T00:24:13;56340.31;;;-142.13;43.68
11712;BME280;5912;51.034;6.984;2023-04-28T00:26:39;56314.25;;;-142.13;44.34
11712;BME280;5912;51.034;6.984;2023-04-28T00:29:04;56332.28;;;-142.13;44.87
11712;BME280;5912;51.034;6.984;2023-04-28T00:31:29;56346.31;;;-142.13;44.64
11712;BME280;5912;51.034;6.984;2023-04-28T00:33:55;56344.31;;;-142.13;44.39
11712;BME280;5912;51.034;6.984;2023-04-28T00:36:20;56316.25;;;-142.13;44.03
11712;BME280;5912;51.034;6.984;2023-04-28T00:38:45;56342.31;;;-142.13;44.25
11712;BME280;5912;51.034;6.984;2023-04-28T00:41:11;56328.28;;;-142.13;44.59
11712;BME280;5912;51.034;6.984;2023-04-28T00:43:46;56356.31;;;-142.13;44.55
11712;BME280;5912;51.034;6.984;2023-04-28T00:46:28;56356.31;;;-142.13;45.48
11712;BME280;5912;51.034;6.984;2023-04-28T00:48:54;56340.31;;;-142.13;45.50
11712;BME280;5912;51.034;6.984;2023-04-28T00:51:20;56320.28;;;-142.13;45.60
11712;BME280;5912;51.034;6.984;2023-04-28T00:53:45;56368.34;;;-142.13;45.48
11712;BME280;5912;51.034;6.984;2023-04-28T00:56:11;56372.34;;;-142.13;45.45
11712;BME280;5912;51.034;6.984;2023-04-28T00:58:37;56338.31;;;-142.13;46.12
11712;BME280;5912;51.034;6.984;2023-04-28T01:01:03;56338.31;;;-142.13;46.11
11712;BME280;5912;51.034;6.984;2023-04-28T01:03:29;56352.31;;;-142.13;46.28
11712;BME280;5912;51.034;6.984;2023-04-28T01:05:56;56348.31;;;-142.13;46.48
11712;BME280;5912;51.034;6.984;2023-04-28T01:08:23;56362.34;;;-142.13;47.01
11712;BME280;5912;51.034;6.984;2023-04-28T01:10:48;56340.31;;;-142.13;47.20
11712;BME280;5912;51.034;6.984;2023-04-28T01:13:14;56356.31;;;-142.13;48.07
11712;BME280;5912;51.034;6.984;2023-04-28T01:15:39;56358.34;;;-142.13;48.56
11712;BME280;5912;51.034;6.984;2023-04-28T01:18:04;56344.31;;;-142.13;48.08
11712;BME280;5912;51.034;6.984;2023-04-28T01:20:30;56336.28;;;-142.13;47.70
11712;BME280;5912;51.034;6.984;2023-04-28T01:22:55;56328.28;;;-142.13;48.36
11712;BME280;5912;51.034;6.984;2023-04-28T01:25:20;56380.38;;;-142.13;49.43
11712;BME280;5912;51.034;6.984;2023-04-28T01:27:46;56374.34;;;-142.13;48.71
11712;BME280;5912;51.034;6.984;2023-04-28T01:30:11;56356.31;;;-142.13;49.10
11712;BME280;5912;51.034;6.984;2023-04-28T01:32:36;56356.31;;;-142.13;50.58
11712;BME280;5912;51.034;6.984;2023-04-28T01:35:02;56390.38;;;-142.13;50.52
11712;BME280;5912;51.034;6.984;2023-04-28T01:37:27;56338.31;;;-142.13;50.85
11712;BME280;5912;51.034;6.984;2023-04-28T01:39:53;56332.28;;;-142.13;50.98
11712;BME280;5912;51.034;6.984;2023-04-28T01:42:18;56374.34;;;-142.13;51.34
11712;BME280;5912;51.034;6.984;2023-04-28T01:44:43;56348.31;;;-142.13;52.54
11712;BME280;5912;51.034;6.984;2023-04-28T01:47:09;56368.34;;;-142.13;53.35
11712;BME280;5912;51.034;6.984;2023-04-28T01:49:35;56324.28;;;-142.13;53.69
11712;BME280;5912;51.034;6.984;2023-04-28T01:52:00;56360.34;;;-142.13;54.14
11712;BME280;5912;51.034;6.984;2023-04-28T01:54:25;56366.34;;;-142.13;54.66
11712;BME280;5912;51.034;6.984;2023-04-28T01:56:51;56362.34;;;-142.13;54.94
11712;BME280;5912;51.034;6.984;2023-04-28T01:59:16;56374.34;;;-142.13;55.20
11712;BME280;5912;51.034;6.984;2023-04-28T02:01:44;56350.31;;;-142.13;55.37
11712;BME280;5912;51.034;6.984;2023-04-28T02:04:09;56380.38;;;-142.13;55.35
11712;BME280;5912;51.034;6.984;2023-04-28T02:06:35;56364.34;;;-142.13;55.06
11712;BME280;5912;51.034;6.984;2023-04-28T02:09:00;56376.34;;;-142.13;55.72
11712;BME280;5912;51.034;6.984;2023-04-28T02:11:26;56384.38;;;-142.13;56.53
11712;BME280;5912;51.034;6.984;2023-04-28T02:13:51;56412.41;;;-142.13;56.93
11712;BME280;5912;51.034;6.984;2023-04-28T02:16:16;56380.38;;;-142.13;56.95
11712;BME280;5912;51.034;6.984;2023-04-28T02:18:41;56390.38;;;-142.13;57.60
11712;BME280;5912;51.034;6.984;2023-04-28T02:21:10;56366.34;;;-142.13;58.24
11712;BME280;5912;51.034;6.984;2023-04-28T02:23:36;56380.38;;;-142.13;58.57
11712;BME280;5912;51.034;6.984;2023-04-28T02:26:02;56344.31;;;-142.13;59.47
11712;BME280;5912;51.034;6.984;2023-04-28T02:28:28;56332.28;;;-142.13;59.78
11712;BME280;5912;51.034;6.984;2023-04-28T02:31:05;56404.41;;;-142.13;59.92
11712;BME280;5912;51.034;6.984;2023-04-28T02:33:31;56394.38;;;-142.13;60.75
11712;BME280;5912;51.034;6.984;2023-04-28T02:36:02;56392.38;;;-142.13;60.94
11712;BME280;5912;51.034;6.984;2023-04-28T02:38:28;56392.38;;;-142.13;61.67
11712;BME280;5912;51.034;6.984;2023-04-28T02:41:01;56364.34;;;-142.13;61.95
11712;BME280;5912;51.034;6.984;2023-04-28T02:43:27;56392.38;;;-142.13;62.57
11712;BME280;5912;51.034;6.984;2023-04-28T02:45:53;56408.41;;;-142.13;63.24
11712;BME280;5912;51.034;6.984;2023-04-28T02:48:18;56346.31;;;-142.13;63.20
11712;BME280;5912;51.034;6.984;2023-04-28T02:50:44;56386.38;;;-142.13;63.47
11712;BME280;5912;51.034;6.984;2023-04-28T02:53:12;56374.34;;;-142.13;63.65
11712;BME280;5912;51.034;6.984;2023-04-28T02:55:37;56400.41;;;-142.13;63.82
11712;BME280;5912;51.034;6.984;2023-04-28T02:58:03;56402.41;;;-142.13;63.72
11712;BME280;5912;51.034;6.984;2023-04-28T03:00:28;56396.41;;;-142.13;63.28
11712;BME280;5912;51.034;6.984;2023-04-28T03:02:53;56364.34;;;-142.13;63.53
11712;BME280;5912;51.034;6.984;2023-04-28T03:05:19;56414.41;;;-142.13;63.67
11712;BME280;5912;51.034;6.984;2023-04-28T03:07:44;56400.41;;;-142.13;63.61
11712;BME280;5912;51.034;6.984;2023-04-28T03:10:10;56388.38;;;-142.13;63.66
11712;BME280;5912;51.034;6.984;2023-04-28T03:12:35;56408.41;;;-142.13;62.87
11712;BME280;5912;51.034;6.984;2023-04-28T03:15:00;56412.41;;;-142.13;63.05
11712;BME280;5912;51.034;6.984;2023-04-28T03:17:26;56398.41;;;-142.13;63.14
11712;BME280;5912;51.034;6.984;2023-04-28T03:19:51;56396.41;;;-142.13;63.33
11712;BME280;5912;51.034;6.984;2023-04-28T03:22:17;56404.41;;;-142.13;63.53
11712;BME280;5912;51.034;6.984;2023-04-28T03:24:42;56386.38;;;-142.13;63.25
11712;BME280;5912;51.034;6.984;2023-04-28T03:27:07;56396.41;;;-142.13;63.46
11712;BME280;5912;51.034;6.984;2023-04-28T03:29:33;56390.38;;;-142.13;63.40
11712;BME280;5912;51.034;6.984;2023-04-28T03:31:58;56394.38;;;-142.13;63.65
11712;BME280;5912;51.034;6.984;2023-04-28T03:34:23;56384.38;;;-142.13;63.98
11712;BME280;5912;51.034;6.984;2023-04-28T03:36:48;56404.41;;;-142.13;63.77
11712;BME280;5912;51.034;6.984;2023-04-28T03:39:14;56384.38;;;-142.13;64.10
11712;BME280;5912;51.034;6.984;2023-04-28T03:41:39;56416.44;;;-142.13;64.60
11712;BME280;5912;51.034;6.984;2023-04-28T03:44:05;56434.44;;;-142.13;64.83
11712;BME280;5912;51.034;6.984;2023-04-28T03:46:31;56408.41;;;-142.13;64.97
11712;BME280;5912;51.034;6.984;2023-04-28T03:48:56;56424.44;;;-142.13;65.01
11712;BME280;5912;51.034;6.984;2023-04-28T03:51:21;56416.44;;;-142.13;65.58
11712;BME280;5912;51.034;6.984;2023-04-28T03:53:46;56430.44;;;-142.13;65.87
11712;BME280;5912;51.034;6.984;2023-04-28T03:56:12;56416.44;;;-142.13;66.43
11712;BME280;5912;51.034;6.984;2023-04-28T03:58:37;56406.41;;;-142.13;66.73
11712;BME280;5912;51.034;6.984;2023-04-28T04:01:02;56404.41;;;-142.13;67.20
11712;BME280;5912;51.034;6.984;2023-04-28T04:03:29;56344.31;;;-142.13;67.37
11712;BME280;5912;51.034;6.984;2023-04-28T04:05:54;56428.44;;;-142.13;67.89
11712;BME280;5912;51.034;6.984;2023-04-28T04:08:20;56412.41;;;-142.13;68.37
11712;BME280;5912;51.034;6.984;2023-04-28T04:10:45;56412.41;;;-142.13;68.39
11712;BME280;5912;51.034;6.984;2023-04-28T04:13:11;56404.41;;;-142.13;68.61
11712;BME280;5912;51.034;6.984;2023-04-28T04:15:36;56412.41;;;-142.13;68.65
11712;BME280;5912;51.034;6.984;2023-04-28T04:18:01;56422.44;;;-142.13;68.99
11712;BME280;5912;51.034;6.984;2023-04-28T04:20:26;56438.47;;;-142.13;68.72
11712;BME280;5912;51.034;6.984;2023-04-28T04:22:52;56402.41;;;-142.13;68.42
11712;BME280;5912;51.034;6.984;2023-04-28T04:25:17;56400.41;;;-142.13;68.45
11712;BME280;5912;51.034;6.984;2023-04-28T04:27:42;56420.44;;;-142.13;67.89
11712;BME280;5912;51.034;6.984;2023-04-28T04:30:08;56394.38;;;-142.13;68.14
11712;BME280;5912;51.034;6.984;2023-04-28T04:32:33;56412.41;;;-142.13;67.88
11712;BME280;5912;51.034;6.984;2023-04-28T04:34:59;56414.41;;;-142.13;67.65
11712;BME280;5912;51.034;6.984;2023-04-28T04:37:24;56394.38;;;-142.13;68.00
11712;BME280;5912;51.034;6.984;2023-04-28T04:39:49;56388.38;;;-142.13;68.05
11712;BME280;5912;51.034;6.984;2023-04-28T04:42:14;56390.38;;;-142.13;68.25
11712;BME280;5912;51.034;6.984;2023-04-28T04:44:40;56396.41;;;-142.13;68.19
11712;BME280;5912;51.034;6.984;2023-04-28T04:47:05;56420.44;;;-142.13;68.56
11712;BME280;5912;51.034;6.984;2023-04-28T04:49:31;56424.44;;;-142.13;68.31
11712;BME280;5912;51.034;6.984;2023-04-28T04:51:56;56440.47;;;-142.13;68.66
11712;BME280;5912;51.034;6.984;2023-04-28T04:54:22;56418.44;;;-142.13;68.54
11712;BME280;5912;51.034;6.984;2023-04-28T04:56:47;56388.38;;;-142.13;68.37
11712;BME280;5912;51.034;6.984;2023-04-28T04:59:12;56406.41;;;-142.13;68.14
11712;BME280;5912;51.034;6.984;2023-04-28T05:01:38;56398.41;;;-142.13;68.28
11712;BME280;5912;51.034;6.984;2023-04-28T05:04:03;56392.38;;;-142.13;67.91
11712;BME280;5912;51.034;6.984;2023-04-28T05:06:28;56404.41;;;-142.13;67.39
11712;BME280;5912;51.034;6.984;2023-04-28T05:08:55;56420.44;;;-142.13;67.33
11712;BME280;5912;51.034;6.984;2023-04-28T05:11:22;56396.41;;;-142.13;67.30
11712;BME280;5912;51.034;6.984;2023-04-28T05:13:47;56414.41;;;-142.13;66.79
11712;BME280;5912;51.034;6.984;2023-04-28T05:16:12;56392.38;;;-142.13;67.38
11712;BME280;5912;51.034;6.984;2023-04-28T05:18:38;56428.44;;;-142.13;67.45
11712;BME280;5912;51.034;6.984;2023-04-28T05:21:03;56388.38;;;-142.13;67.46
11712;BME280;5912;51.034;6.984;2023-04-28T05:23:29;56396.41;;;-142.13;67.25
11712;BME280;5912;51.034;6.984;2023-04-28T05:25:54;56410.41;;;-142.13;67.25
11712;BME280;5912;51.034;6.984;2023-04-28T05:28:19;56378.38;;;-142.13;67.06
11712;BME280;5912;51.034;6.984;2023-04-28T05:30:45;56398.41;;;-142.13;67.58
11712;BME280;5912;51.034;6.984;2023-04-28T05:33:11;56416.44;;;-142.13;67.42
11712;BME280;5912;51.034;6.984;2023-04-28T05:35:36;56402.41;;;-142.13;67.70
11712;BME280;5912;51.034;6.984;2023-04-28T05:38:01;56392.38;;;-142.13;67.73
11712;BME280;5912;51.034;6.984;2023-04-28T05:40:27;56402.41;;;-142.13;67.78
11712;BME280;5912;51.034;6.984;2023-04-28T05:42:53;56422.44;;;-142.13;68.20
11712;BME280;5912;51.034;6.984;2023-04-28T05:45:18;56402.41;;;-142.13;68.52
11712;BME280;5912;51.034;6.984;2023-04-28T05:47:43;56396.41;;;-142.13;68.48
11712;BME280;5912;51.034;6.984;2023-04-28T05:50:09;56416.44;;;-142.13;68.54
11712;BME280;5912;51.034;6.984;2023-04-28T05:52:34;56392.38;;;-142.13;68.26
11712;BME280;5912;51.034;6.984;2023-04-28T05:55:00;56404.41;;;-142.13;67.96
11712;BME280;5912;51.034;6.984;2023-04-28T05:57:25;56422.44;;;-142.13;67.98
11712;BME280;5912;51.034;6.984;2023-04-28T05:59:50;56392.38;;;-142.13;68.47
11712;BME280;5912;51.034;6.984;2023-04-28T06:02:16;56380.38;;;-142.13;68.44
11712;BME280;5912;51.034;6.984;2023-04-28T06:04:41;56372.34;;;-142.13;68.14
11712;BME280;5912;51.034;6.984;2023-04-28T06:07:08;56404.41;;;-142.13;67.83
11712;BME280;5912;51.034;6.984;2023-04-28T06:09:34;56404.41;;;-142.13;68.29
11712;BME280;5912;51.034;6.984;2023-04-28T06:11:59;56414.41;;;-142.13;67.78
11712;BME280;5912;51.034;6.984;2023-04-28T06:14:24;56388.38;;;-142.13;67.87
11712;BME280;5912;51.034;6.984;2023-04-28T06:16:50;56400.41;;;-142.13;67.75
11712;BME280;5912;51.034;6.984;2023-04-28T06:19:15;56374.34;;;-142.13;67.60
11712;BME280;5912;51.034;6.984;2023-04-28T06:21:43;56388.38;;;-142.13;67.28
11712;BME280;5912;51.034;6.984;2023-04-28T06:24:08;56366.34;;;-142.13;67.29
11712;BME280;5912;51.034;6.984;2023-04-28T06:26:34;56376.34;;;-142.13;66.64
11712;BME280;5912;51.034;6.984;2023-04-28T06:28:59;56370.34;;;-142.13;66.49
11712;BME280;5912;51.034;6.984;2023-04-28T06:31:25;56390.38;;;-142.13;66.40
11712;BME280;5912;51.034;6.984;2023-04-28T06:33:50;56376.34;;;-142.13;66.33
11712;BME280;5912;51.034;6.984;2023-04-28T06:36:16;56360.34;;;-142.13;66.77
11712;BME280;5912;51.034;6.984;2023-04-28T06:38:42;56364.34;;;-142.13;65.84
11712;BME280;5912;51.034;6.984;2023-04-28T06:41:09;56360.34;;;-142.13;64.87
11712;BME280;5912;51.034;6.984;2023-04-28T06:43:34;56362.34;;;-142.13;64.77
11712;BME280;5912;51.034;6.984;2023-04-28T06:46:00;56348.31;;;-142.13;63.39
11712;BME280;5912;51.034;6.984;2023-04-28T06:48:25;56344.31;;;-142.13;63.06
11712;BME280;5912;51.034;6.984;2023-04-28T06:50:51;56306.25;;;-142.13;62.78
11712;BME280;5912;51.034;6.984;2023-04-28T06:53:16;56340.31;;;-142.13;62.85
11712;BME280;5912;51.034;6.984;2023-04-28T06:55:41;56304.25;;;-142.13;61.76
11712;BME280;5912;51.034;6.984;2023-04-28T06:58:07;56320.28;;;-142.13;62.51
11712;BME280;5912;51.034;6.984;2023-04-28T07:00:33;56324.28;;;-142.13;63.05
11712;BME280;5912;51.034;6.984;2023-04-28T07:02:59;56340.31;;;-142.13;62.77
11712;BME280;5912;51.034;6.984;2023-04-28T07:05:24;56344.31;;;-142.13;62.93
11712;BME280;5912;51.034;6.984;2023-04-28T07:07:50;56314.25;;;-142.13;62.93
11712;BME280;5912;51.034;6.984;2023-04-28T07:10:15;56318.25;;;-142.13;62.84
11712;BME280;5912;51.034;6.984;2023-04-28T07:12:40;56318.25;;;-142.13;63.19
11712;BME280;5912;51.034;6.984;2023-04-28T07:15:06;56336.28;;;-142.13;62.35
11712;BME280;5912;51.034;6.984;2023-04-28T07:17:32;56306.25;;;-142.13;61.22
11712;BME280;5912;51.034;6.984;2023-04-28T07:19:57;56284.22;;;-142.13;60.32
11712;BME280;5912;51.034;6.984;2023-04-28T07:22:23;56322.28;;;-142.13;60.13
11712;BME280;5912;51.034;6.984;2023-04-28T07:24:48;56320.28;;;-142.13;59.72
11712;BME280;5912;51.034;6.984;2023-04-28T07:27:13;56300.25;;;-142.13;60.08
11712;BME280;5912;51.034;6.984;2023-04-28T07:29:39;56320.28;;;-142.13;60.27
11712;BME280;5912;51.034;6.984;2023-04-28T07:32:04;56312.25;;;-142.13;60.03
11712;BME280;5912;51.034;6.984;2023-04-28T07:34:32;56316.25;;;-142.13;60.75
11712;BME280;5912;51.034;6.984;2023-04-28T07:36:57;56290.22;;;-142.13;60.82
11712;BME280;5912;51.034;6.984;2023-04-28T07:39:23;56320.28;;;-142.13;61.10
11712;BME280;5912;51.034;6.984;2023-04-28T07:41:49;56300.25;;;-142.13;61.15
11712;BME280;5912;51.034;6.984;2023-04-28T07:44:14;56326.28;;;-142.13;61.17
11712;BME280;5912;51.034;6.984;2023-04-28T07:46:40;56304.25;;;-142.13;61.13
11712;BME280;5912;51.034;6.984;2023-04-28T07:49:05;56306.25;;;-142.13;60.92
11712;BME280;5912;51.034;6.984;2023-04-28T07:51:32;56328.28;;;-142.13;61.05
11712;BME280;5912;51.034;6.984;2023-04-28T07:53:57;56298.22;;;-142.13;60.26
11712;BME280;5912;51.034;6.984;2023-04-28T07:56:23;56280.22;;;-142.13;59.38
11712;BME280;5912;51.034;6.984;2023-04-28T07:58:48;56288.22;;;-142.13;57.93
11712;BME280;5912;51.034;6.984;2023-04-28T08:01:14;56302.25;;;-142.13;57.23
11712;BME280;5912;51.034;6.984;2023-04-28T08:03:39;56288.22;;;-142.13;56.85
11712;BME280;5912;51.034;6.984;2023-04-28T08:06:05;56240.16;;;-142.13;56.41
11712;BME280;5912;51.034;6.984;2023-04-28T08:08:31;56264.19;;;-142.13;55.91
11712;BME280;5912;51.034;6.984;2023-04-28T08:10:56;56282.22;;;-142.13;56.17
11712;BME280;5912;51.034;6.984;2023-04-28T08:13:22;56266.19;;;-142.13;56.41
11712;BME280;5912;51.034;6.984;2023-04-28T08:15:48;56284.22;;;-142.13;56.72
11712;BME280;5912;51.034;6.984;2023-04-28T08:18:14;56276.19;;;-142.13;56.41
11712;BME280;5912;51.034;6.984;2023-04-28T08:21:03;56276.19;;;-142.13;56.57
11712;BME280;5912;51.034;6.984;2023-04-28T08:23:28;56256.16;;;-142.13;56.29
11712;BME280;5912;51.034;6.984;2023-04-28T08:25:56;56268.19;;;-142.13;56.50
11712;BME280;5912;51.034;6.984;2023-04-28T08:28:21;56264.19;;;-142.13;56.03
11712;BME280;5912;51.034;6.984;2023-04-28T08:30:46;56284.22;;;-142.13;55.82
11712;BME280;5912;51.034;6.984;2023-04-28T08:33:11;56268.19;;;-142.13;54.47
11712;BME280;5912;51.034;6.984;2023-04-28T08:35:37;56264.19;;;-142.13;54.56
11712;BME280;5912;51.034;6.984;2023-04-28T08:38:02;56282.22;;;-142.13;54.34
11712;BME280;5912;51.034;6.984;2023-04-28T08:40:28;56234.13;;;-142.13;54.49
11712;BME280;5912;51.034;6.984;2023-04-28T08:42:55;56236.13;;;-142.13;54.74
11712;BME280;5912;51.034;6.984;2023-04-28T08:45:22;56228.13;;;-142.13;54.79
11712;BME280;5912;51.034;6.984;2023-04-28T08:47:48;56228.13;;;-142.13;53.88
11712;BME280;5912;51.034;6.984;2023-04-28T08:50:20;56222.13;;;-142.13;52.25
11712;BME280;5912;51.034;6.984;2023-04-28T08:52:46;56236.13;;;-142.13;51.58
11712;BME280;5912;51.034;6.984;2023-04-28T08:55:12;56228.13;;;-142.13;51.17
11712;BME280;5912;51.034;6.984;2023-04-28T08:57:38;56210.09;;;-142.13;52.42
11712;BME280;5912;51.034;6.984;2023-04-28T09:00:05;56212.09;;;-142.13;52.38
11712;BME280;5912;51.034;6.984;2023-04-28T09:02:32;56200.09;;;-142.13;52.06
11712;BME280;5912;51.034;6.984;2023-04-28T09:04:57;56204.09;;;-142.13;51.83
11712;BME280;5912;51.034;6.984;2023-04-28T09:07:22;56224.13;;;-142.13;51.56
11712;BME280;5912;51.034;6.984;2023-04-28T09:09:48;56222.13;;;-142.13;52.47
11712;BME280;5912;51.034;6.984;2023-04-28T09:12:13;56252.16;;;-142.13;52.74
11712;BME280;5912;51.034;6.984;2023-04-28T09:14:39;56210.09;;;-142.13;52.84
11712;BME280;5912;51.034;6.984;2023-04-28T09:17:11;56228.13;;;-142.13;52.65
11712;BME280;5912;51.034;6.984;2023-04-28T09:19:38;56250.16;;;-142.13;52.47
11712;BME280;5912;51.034;6.984;2023-04-28T09:22:05;56228.13;;;-142.13;53.30
11712;BME280;5912;51.034;6.984;2023-04-28T09:24:31;56236.13;;;-142.13;53.80
11712;BME280;5912;51.034;6.984;2023-04-28T09:26:58;56256.16;;;-142.13;55.62
11712;BME280;5912;51.034;6.984;2023-04-28T09:29:23;56266.19;;;-142.13;56.60
11712;BME280;5912;51.034;6.984;2023-04-28T09:31:49;56238.13;;;-142.13;58.67
11712;BME280;5912;51.034;6.984;2023-04-28T09:34:14;56220.13;;;-142.13;59.80
11712;BME280;5912;51.034;6.984;2023-04-28T09:36:40;56296.22;;;-142.13;59.98
11712;BME280;5912;51.034;6.984;2023-04-28T09:39:06;56232.13;;;-142.13;60.33
11712;BME280;5912;51.034;6.984;2023-04-28T09:41:39;56242.16;;;-142.13;60.72
11712;BME280;5912;51.034;6.984;2023-04-28T09:44:15;56252.16;;;-142.13;61.17
11712;BME280;5912;51.034;6.984;2023-04-28T09:46:42;56236.13;;;-142.13;60.80
11712;BME280;5912;51.034;6.984;2023-04-28T09:49:09;56246.16;;;-142.13;61.05
11712;BME280;5912;51.034;6.984;2023-04-28T09:51:34;56236.13;;;-142.13;61.67
11712;BME280;5912;51.034;6.984;2023-04-28T09:54:00;56232.13;;;-142.13;62.63
11712;BME280;5912;51.034;6.984;2023-04-28T09:56:27;56256.16;;;-142.13;63.27
11712;BME280;5912;51.034;6.984;2023-04-28T09:58:57;56254.16;;;-142.13;64.12
11712;BME280;5912;51.034;6.984;2023-04-28T10:01:36;56260.19;;;-142.13;64.64
11712;BME280;5912;51.034;6.984;2023-04-28T10:04:03;56246.16;;;-142.13;65.31
11712;BME280;5912;51.034;6.984;2023-04-28T10:06:29;56264.19;;;-142.13;66.19
11712;BME280;5912;51.034;6.984;2023-04-28T10:08:55;56282.22;;;-142.13;66.85
11712;BME280;5912;51.034;6.984;2023-04-28T10:11:22;56278.19;;;-142.13;67.39
11712;BME280;5912;51.034;6.984;2023-04-28T10:13:49;56264.19;;;-142.13;67.90
11712;BME280;5912;51.034;6.984;2023-04-28T10:16:15;56264.19;;;-142.13;68.41
11712;BME280;5912;51.034;6.984;2023-04-28T10:18:41;56294.22;;;-142.13;68.42
11712;BME280;5912;51.034;6.984;2023-04-28T10:21:07;56290.22;;;-142.13;68.72
11712;BME280;5912;51.034;6.984;2023-04-28T10:26:02;56276.19;;;-142.13;68.42
11712;BME280;5912;51.034;6.984;2023-04-28T10:28:34;56380.38;;;-142.13;68.87
11712;BME280;5912;51.034;6.984;2023-04-28T10:31:19;56260.19;;;-142.13;68.54
11712;BME280;5912;51.034;6.984;2023-04-28T10:33:46;56266.19;;;-142.13;68.84
11712;BME280;5912;51.034;6.984;2023-04-28T10:36:50;56242.16;;;-142.13;68.48
11712;BME280;5912;51.034;6.984;2023-04-28T10:39:20;56248.16;;;-142.13;68.45
11712;BME280;5912;51.034;6.984;2023-04-28T10:41:46;56240.16;;;-142.13;67.80
11712;BME280;5912;51.034;6.984;2023-04-28T10:47:05;56276.19;;;-142.13;68.83
11712;BME280;5912;51.034;6.984;2023-04-28T10:55:28;56268.19;;;-142.13;68.28
11712;BME280;5912;51.034;6.984;2023-04-28T11:00:41;56248.16;;;-142.13;68.40
11712;BME280;5912;51.034;6.984;2023-04-28T11:03:06;56232.13;;;-142.13;67.96
11712;BME280;5912;51.034;6.984;2023-04-28T11:05:32;56236.13;;;-142.13;67.93
11712;BME280;5912;51.034;6.984;2023-04-28T11:13:35;56154.00;;;-142.13;64.12
11712;BME280;5912;51.034;6.984;2023-04-28T11:16:05;56144.00;;;-142.13;61.69
11712;BME280;5912;51.034;6.984;2023-04-28T11:18:50;56184.06;;;-142.13;59.63
11712;BME280;5912;51.034;6.984;2023-04-28T11:21:17;56150.00;;;-142.13;59.86
11712;BME280;5912;51.034;6.984;2023-04-28T11:23:43;56158.00;;;-142.13;59.44
11712;BME280;5912;51.034;6.984;2023-04-28T11:26:08;56172.03;;;-142.13;58.29
11712;BME280;5912;51.034;6.984;2023-04-28T11:28:34;56127.97;;;-142.13;57.93
11712;BME280;5912;51.034;6.984;2023-04-28T11:31:14;56168.03;;;-142.13;57.03
11712;BME280;5912;51.034;6.984;2023-04-28T11:36:27;56119.97;;;-142.13;54.87
11712;BME280;5912;51.034;6.984;2023-04-28T11:38:54;56075.88;;;-142.13;53.75
11712;BME280;5912;51.034;6.984;2023-04-28T11:41:20;56091.91;;;-142.13;53.69
11712;BME280;5912;51.034;6.984;2023-04-28T11:43:46;56107.94;;;-142.13;53.63
11712;BME280;5912;51.034;6.984;2023-04-28T11:46:19;56101.94;;;-142.13;53.13
11712;BME280;5912;51.034;6.984;2023-04-28T11:48:45;56079.91;;;-142.13;52.84
11712;BME280;5912;51.034;6.984;2023-04-28T11:51:32;56051.84;;;-142.13;50.34
11712;BME280;5912;51.034;6.984;2023-04-28T11:53:59;56031.81;;;-142.13;48.89
11712;BME280;5912;51.034;6.984;2023-04-28T11:56:25;56057.88;;;-142.13;48.74
11712;BME280;5912;51.034;6.984;2023-04-28T11:59:04;56051.84;;;-142.13;48.62
11712;BME280;5912;51.034;6.984;2023-04-28T12:01:30;56067.88;;;-142.13;48.50
11712;BME280;5912;51.034;6.984;2023-04-28T12:03:56;56015.81;;;-142.13;47.61
11712;BME280;5912;51.034;6.984;2023-04-28T12:06:21;56011.78;;;-142.13;46.66
11712;BME280;5912;51.034;6.984;2023-04-28T12:08:47;55991.75;;;-142.13;45.46
11712;BME280;5912;51.034;6.984;2023-04-28T12:11:13;56001.78;;;-142.13;44.68
11712;BME280;5912;51.034;6.984;2023-04-28T12:13:39;55971.72;;;-142.13;42.16
11712;BME280;5912;51.034;6.984;2023-04-28T12:16:05;55915.66;;;-142.13;41.77
11712;BME280;5912;51.034;6.984;2023-04-28T12:18:32;55887.59;;;-142.13;38.54
11712;BME280;5912;51.034;6.984;2023-04-28T12:20:57;55907.63;;;-142.13;38.42
11712;BME280;5912;51.034;6.984;2023-04-28T12:23:33;55897.63;;;-142.13;38.11
11712;BME280;5912;51.034;6.984;2023-04-28T12:25:59;55893.63;;;-142.13;38.48
11712;BME280;5912;51.034;6.984;2023-04-28T12:28:38;55909.63;;;-142.13;38.45
11712;BME280;5912;51.034;6.984;2023-04-28T12:31:06;55923.66;;;-142.13;38.20
11712;BME280;5912;51.034;6.984;2023-04-28T12:33:33;55923.66;;;-142.13;38.42
11712;BME280;5912;51.034;6.984;2023-04-28T12:36:02;55939.69;;;-142.13;39.77
11712;BME280;5912;51.034;6.984;2023-04-28T12:38:28;55953.72;;;-142.13;41.14
11712;BME280;5912;51.034;6.984;2023-04-28T12:40:54;55911.66;;;-142.13;39.56
11712;BME280;5912;51.034;6.984;2023-04-28T12:43:19;55881.59;;;-142.13;37.50
11712;BME280;5912;51.034;6.984;2023-04-28T12:45:47;55851.56;;;-142.13;37.21
11712;BME280;5912;51.034;6.984;2023-04-28T12:48:13;55847.56;;;-142.13;36.32
11712;BME280;5912;51.034;6.984;2023-04-28T12:50:38;55831.53;;;-142.13;35.66
11712;BME280;5912;51.034;6.984;2023-04-28T12:53:03;55821.50;;;-142.13;34.68
11712;BME280;5912;51.034;6.984;2023-04-28T12:55:29;55771.44;;;-142.13;34.32
11712;BME280;5912;51.034;6.984;2023-04-28T12:57:54;55787.47;;;-142.13;33.33
11712;BME280;5912;51.034;6.984;2023-04-28T13:00:20;55761.41;;;-142.13;32.80
11712;BME280;5912;51.034;6.984;2023-04-28T13:02:48;55773.44;;;-142.13;33.13
11712;BME280;5912;51.034;6.984;2023-04-28T13:05:13;55759.41;;;-142.13;32.95
11712;BME280;5912;51.034;6.984;2023-04-28T13:07:39;55715.34;;;-142.13;32.49